Terminal Aerodrome Forecast
Issued by NWS Brownsville, TX

Current Version | Previous Version | Text Only | Print | Product List | Glossary Off
Versions: 1 2 3 4 5 6 7 8 9 10 11 12 13 14 15 16

000
FTUS44 KBRO 051120
TAFBRO
TAF
KBRO 051120Z 0512/0612 13007KT P6SM BKN025
     FM051400 16016G22KT P6SM BKN025
     FM051700 16019G25KT P6SM SCT050
     FM060200 14013KT P6SM FEW030
     FM060400 15008KT P6SM BKN025=

USA.gov is the U.S. government's official web portal to all federal, state and local government web resources and services.